createdAt,value
2016-11-03T00:01:38.778Z,1014.88
2016-11-03T00:02:20.488Z,1014.84
2016-11-03T00:04:41.261Z,1014.92
2016-11-03T00:05:22.939Z,1014.88
2016-11-03T00:07:43.772Z,1014.91
2016-11-03T00:08:25.519Z,1014.9
2016-11-03T00:09:07.174Z,1014.91
2016-11-03T00:09:48.854Z,1014.93
2016-11-03T00:10:30.638Z,1014.93
2016-11-03T00:11:12.261Z,1014.94
2016-11-03T00:11:53.993Z,1014.96
2016-11-03T00:12:35.707Z,1014.97
2016-11-03T00:13:17.376Z,1014.97
2016-11-03T00:13:58.986Z,1015
2016-11-03T00:14:40.709Z,1014.98
2016-11-03T00:15:22.430Z,1014.98
2016-11-03T00:17:53.513Z,1015
2016-11-03T00:18:35.314Z,1015.01
2016-11-03T00:20:50.608Z,1014.98
2016-11-03T00:21:32.337Z,1014.94
2016-11-03T00:22:14.020Z,1014.98
2016-11-03T00:24:08.733Z,1014.92
2016-11-03T00:24:50.354Z,1014.94
2016-11-03T00:25:32.089Z,1014.96
2016-11-03T00:26:13.773Z,1014.98
2016-11-03T00:26:55.526Z,1014.95
2016-11-03T00:27:37.240Z,1014.95
2016-11-03T00:28:18.971Z,1014.97
2016-11-03T00:29:00.697Z,1014.96
2016-11-03T00:31:00.829Z,1014.94
2016-11-03T00:33:16.168Z,1014.97
2016-11-03T00:33:57.925Z,1014.95
2016-11-03T00:34:39.626Z,1014.99
2016-11-03T00:35:21.446Z,1015.02
2016-11-03T00:36:03.064Z,1014.96
2016-11-03T00:36:44.600Z,1015.01
2016-11-03T00:37:26.286Z,1015.05
2016-11-03T00:38:07.925Z,1015.01
2016-11-03T00:38:49.603Z,1015
2016-11-03T00:39:31.214Z,1015.02
2016-11-03T00:40:13.056Z,1014.99
2016-11-03T00:42:13.083Z,1015.02
2016-11-03T00:44:33.683Z,1015.04
2016-11-03T00:45:15.405Z,1015.01
2016-11-03T00:45:57.147Z,1015.05
2016-11-03T00:46:38.873Z,1015.01
2016-11-03T00:48:54.302Z,1015.05
2016-11-03T00:49:36.000Z,1015.01
2016-11-03T00:50:17.709Z,1015
2016-11-03T00:52:17.769Z,1015.02
2016-11-03T00:52:59.441Z,1015
2016-11-03T00:53:41.019Z,1015.02
2016-11-03T00:54:22.699Z,1015
2016-11-03T00:56:38.021Z,1015.01
2016-11-03T00:58:32.789Z,1015.06
2016-11-03T00:59:14.375Z,1015.05
2016-11-03T01:01:34.397Z,1015.1
2016-11-03T01:02:14.928Z,1015.05
2016-11-03T01:02:55.434Z,1015.09
2016-11-03T01:03:35.962Z,1015.12
2016-11-03T01:04:16.493Z,1015.08
2016-11-03T01:04:57.036Z,1015.06
2016-11-03T01:05:37.564Z,1015.09
2016-11-03T01:06:18.079Z,1015.07
2016-11-03T01:06:58.602Z,1015.12
2016-11-03T01:07:39.138Z,1015.07
2016-11-03T01:08:19.642Z,1015.05
2016-11-03T01:09:00.155Z,1015.05
2016-11-03T01:09:40.683Z,1015.08
2016-11-03T01:10:21.201Z,1015.1
2016-11-03T01:11:01.737Z,1015.04
2016-11-03T01:11:42.254Z,1015.07
2016-11-03T01:12:22.792Z,1015.11
2016-11-03T01:13:03.324Z,1015.09
2016-11-03T01:13:43.850Z,1015.08
2016-11-03T01:14:24.358Z,1015.08
2016-11-03T01:15:04.874Z,1015.1
2016-11-03T01:15:45.408Z,1015.06
2016-11-03T01:16:25.920Z,1015.08
2016-11-03T01:17:06.454Z,1015.09
2016-11-03T01:17:46.988Z,1015.11
2016-11-03T01:18:27.484Z,1015.09
2016-11-03T01:19:08.012Z,1015.06
2016-11-03T01:19:48.537Z,1015.12
2016-11-03T01:20:29.045Z,1015.11
2016-11-03T01:21:09.582Z,1015.11
2016-11-03T01:21:50.114Z,1015.11
2016-11-03T01:22:30.652Z,1015.12
2016-11-03T01:23:11.181Z,1015.12
2016-11-03T01:23:51.720Z,1015.09
2016-11-03T01:24:32.244Z,1015.08
2016-11-03T01:25:12.766Z,1015.07
2016-11-03T01:25:53.300Z,1015.1
2016-11-03T01:26:33.812Z,1015.13
2016-11-03T01:27:14.344Z,1015.17
2016-11-03T01:27:54.864Z,1015.13
2016-11-03T01:28:35.411Z,1015.13
2016-11-03T01:29:15.943Z,1015.07
2016-11-03T01:29:56.464Z,1015.11
2016-11-03T01:30:36.999Z,1015.12
2016-11-03T01:31:17.520Z,1015.13
2016-11-03T01:31:58.053Z,1015.13
2016-11-03T01:32:38.581Z,1015.12
2016-11-03T01:33:19.107Z,1015.15
2016-11-03T01:33:59.626Z,1015.11
2016-11-03T01:34:40.165Z,1015.08
2016-11-03T01:35:20.701Z,1015.06
2016-11-03T01:36:01.224Z,1015.09
2016-11-03T01:36:41.743Z,1015.11
2016-11-03T01:37:22.269Z,1015.09
2016-11-03T01:38:02.771Z,1015.08
2016-11-03T01:38:43.278Z,1015.06
2016-11-03T01:39:23.813Z,1015.08
2016-11-03T01:40:04.347Z,1015.04
2016-11-03T01:40:44.863Z,1015.06
2016-11-03T01:41:25.366Z,1015.05
2016-11-03T01:42:05.890Z,1015.04
2016-11-03T01:42:46.388Z,1015.07
2016-11-03T01:43:26.920Z,1015.06
2016-11-03T01:44:07.435Z,1015.06
2016-11-03T01:44:47.953Z,1015.12
2016-11-03T01:45:28.495Z,1015.08
2016-11-03T01:46:09.009Z,1015.09
2016-11-03T01:46:49.527Z,1015.11
2016-11-03T01:47:30.045Z,1015.12
2016-11-03T01:48:10.566Z,1015.12
2016-11-03T01:48:51.095Z,1015.13
2016-11-03T01:49:31.610Z,1015.11
2016-11-03T01:50:12.171Z,1015.09
2016-11-03T01:50:52.714Z,1015.08
2016-11-03T01:51:33.237Z,1015.1
2016-11-03T01:52:13.757Z,1015.11
2016-11-03T01:52:54.261Z,1015.12
2016-11-03T01:53:34.777Z,1015.14
2016-11-03T01:54:15.293Z,1015.14
2016-11-03T01:54:55.807Z,1015.12
2016-11-03T01:55:36.320Z,1015.16
2016-11-03T01:56:16.847Z,1015.14
2016-11-03T01:56:57.354Z,1015.13
2016-11-03T01:57:37.861Z,1015.15
2016-11-03T01:58:18.402Z,1015.21
2016-11-03T01:58:58.922Z,1015.24
2016-11-03T01:59:39.427Z,1015.2
2016-11-03T02:00:19.938Z,1015.2
2016-11-03T02:01:00.462Z,1015.23
2016-11-03T02:01:40.982Z,1015.22
2016-11-03T02:02:21.512Z,1015.2
2016-11-03T02:03:02.016Z,1015.21
2016-11-03T02:03:42.517Z,1015.22
2016-11-03T02:04:23.052Z,1015.21
2016-11-03T02:05:03.583Z,1015.18
2016-11-03T02:05:44.100Z,1015.2
2016-11-03T02:06:24.614Z,1015.19
2016-11-03T02:07:05.112Z,1015.2
2016-11-03T02:07:45.620Z,1015.24
2016-11-03T02:08:26.149Z,1015.22
2016-11-03T02:09:06.678Z,1015.23
2016-11-03T02:09:47.190Z,1015.21
2016-11-03T02:10:27.723Z,1015.22
2016-11-03T02:11:08.255Z,1015.22
2016-11-03T02:11:48.780Z,1015.27
2016-11-03T02:12:29.307Z,1015.27
2016-11-03T02:13:09.834Z,1015.32
2016-11-03T02:13:50.365Z,1015.31
2016-11-03T02:14:30.903Z,1015.27
2016-11-03T02:15:11.453Z,1015.28
2016-11-03T02:15:51.973Z,1015.31
2016-11-03T02:16:32.482Z,1015.3
2016-11-03T02:17:13.004Z,1015.29
2016-11-03T02:17:53.520Z,1015.32
2016-11-03T02:18:34.050Z,1015.3
2016-11-03T02:19:14.559Z,1015.28
2016-11-03T02:19:55.071Z,1015.27
2016-11-03T02:20:35.603Z,1015.31
2016-11-03T02:21:16.125Z,1015.29
2016-11-03T02:21:56.634Z,1015.29
2016-11-03T02:22:37.160Z,1015.31
2016-11-03T02:23:17.671Z,1015.3
2016-11-03T02:23:58.197Z,1015.32
2016-11-03T02:24:38.702Z,1015.31
2016-11-03T02:25:19.225Z,1015.33
2016-11-03T02:25:59.748Z,1015.32
2016-11-03T02:26:40.272Z,1015.35
2016-11-03T02:27:20.796Z,1015.33
2016-11-03T02:28:01.303Z,1015.33
2016-11-03T02:28:41.825Z,1015.34
2016-11-03T02:29:22.327Z,1015.35
2016-11-03T02:30:02.845Z,1015.34
2016-11-03T02:30:43.371Z,1015.32
2016-11-03T02:31:23.887Z,1015.32
2016-11-03T02:32:04.418Z,1015.29
2016-11-03T02:32:44.958Z,1015.33
2016-11-03T02:33:25.454Z,1015.34
2016-11-03T02:34:05.980Z,1015.3
2016-11-03T02:34:46.513Z,1015.32
2016-11-03T02:35:27.031Z,1015.36
2016-11-03T02:36:07.540Z,1015.35
2016-11-03T02:36:48.059Z,1015.33
2016-11-03T02:37:28.573Z,1015.35
2016-11-03T02:38:09.106Z,1015.35
2016-11-03T02:38:49.624Z,1015.35
2016-11-03T02:39:30.156Z,1015.37
2016-11-03T02:40:10.667Z,1015.3
2016-11-03T02:40:51.194Z,1015.37
2016-11-03T02:43:06.496Z,1015.34
2016-11-03T02:43:47.014Z,1015.32
2016-11-03T02:44:27.537Z,1015.33
2016-11-03T02:45:08.058Z,1015.36
2016-11-03T02:45:48.577Z,1015.35
2016-11-03T02:46:29.096Z,1015.36
2016-11-03T02:47:09.620Z,1015.36
2016-11-03T02:47:50.114Z,1015.35
2016-11-03T02:48:30.640Z,1015.32
2016-11-03T02:49:11.147Z,1015.3
2016-11-03T02:49:51.654Z,1015.34
2016-11-03T02:50:32.187Z,1015.36
2016-11-03T02:51:12.700Z,1015.33
2016-11-03T02:51:53.202Z,1015.34
2016-11-03T02:52:33.743Z,1015.32
2016-11-03T02:53:14.272Z,1015.33
2016-11-03T02:53:54.802Z,1015.33
2016-11-03T02:54:35.337Z,1015.3
2016-11-03T02:55:15.830Z,1015.34
2016-11-03T02:55:56.359Z,1015.35
2016-11-03T02:56:36.882Z,1015.31
2016-11-03T02:57:17.415Z,1015.33
2016-11-03T02:57:57.930Z,1015.35
2016-11-03T02:58:38.442Z,1015.27
2016-11-03T02:59:18.972Z,1015.33
2016-11-03T02:59:59.514Z,1015.34
2016-11-03T03:00:40.025Z,1015.32
2016-11-03T03:01:20.551Z,1015.33
2016-11-03T03:02:01.053Z,1015.32
2016-11-03T03:02:41.592Z,1015.39
2016-11-03T03:03:22.112Z,1015.36
2016-11-03T03:04:02.641Z,1015.39
2016-11-03T03:04:43.190Z,1015.35
2016-11-03T03:05:23.718Z,1015.39
2016-11-03T03:06:04.239Z,1015.38
2016-11-03T03:06:44.770Z,1015.41
2016-11-03T03:07:25.273Z,1015.41
2016-11-03T03:08:05.799Z,1015.37
2016-11-03T03:08:46.322Z,1015.4
2016-11-03T03:09:26.823Z,1015.37
2016-11-03T03:10:07.362Z,1015.4
2016-11-03T03:10:47.901Z,1015.35
2016-11-03T03:11:28.421Z,1015.35
2016-11-03T03:12:08.949Z,1015.39
2016-11-03T03:12:49.484Z,1015.36
2016-11-03T03:13:30.026Z,1015.35
2016-11-03T03:14:10.551Z,1015.37
2016-11-03T03:14:51.085Z,1015.38
2016-11-03T03:15:31.612Z,1015.38
2016-11-03T03:16:12.135Z,1015.36
2016-11-03T03:16:52.668Z,1015.37
2016-11-03T03:17:33.193Z,1015.4
2016-11-03T03:18:13.710Z,1015.39
2016-11-03T03:18:54.238Z,1015.42
2016-11-03T03:19:34.775Z,1015.42
2016-11-03T03:20:15.312Z,1015.41
2016-11-03T03:20:55.847Z,1015.42
2016-11-03T03:21:36.376Z,1015.44
2016-11-03T03:22:16.895Z,1015.42
2016-11-03T03:22:57.417Z,1015.4
2016-11-03T03:23:37.947Z,1015.4
2016-11-03T03:24:18.475Z,1015.38
2016-11-03T03:24:58.997Z,1015.41
2016-11-03T03:25:39.513Z,1015.36
2016-11-03T03:26:20.049Z,1015.39
2016-11-03T03:27:00.556Z,1015.43
2016-11-03T03:27:41.088Z,1015.41
2016-11-03T03:28:21.610Z,1015.42
2016-11-03T03:29:02.145Z,1015.42
2016-11-03T03:29:42.641Z,1015.42
2016-11-03T03:30:23.156Z,1015.41
2016-11-03T03:31:03.697Z,1015.42
2016-11-03T03:31:44.195Z,1015.43
2016-11-03T03:32:24.732Z,1015.41
2016-11-03T03:33:05.246Z,1015.42
2016-11-03T03:33:45.794Z,1015.39
2016-11-03T03:34:26.314Z,1015.4
2016-11-03T03:35:06.812Z,1015.41
2016-11-03T03:35:47.346Z,1015.41
2016-11-03T03:36:27.864Z,1015.42
2016-11-03T03:37:08.394Z,1015.37
2016-11-03T03:37:48.906Z,1015.41
2016-11-03T03:38:29.428Z,1015.4
2016-11-03T03:39:09.941Z,1015.41
2016-11-03T03:39:50.454Z,1015.44
2016-11-03T03:40:30.983Z,1015.43
2016-11-03T03:41:11.516Z,1015.42
2016-11-03T03:41:52.034Z,1015.43
2016-11-03T03:42:32.556Z,1015.4
2016-11-03T03:43:13.088Z,1015.41
2016-11-03T03:43:53.595Z,1015.43
2016-11-03T03:44:34.120Z,1015.41
2016-11-03T03:45:14.653Z,1015.43
2016-11-03T03:45:55.181Z,1015.42
2016-11-03T03:46:35.698Z,1015.43
2016-11-03T03:47:16.215Z,1015.41
2016-11-03T03:47:56.759Z,1015.4
2016-11-03T03:48:37.279Z,1015.47
2016-11-03T03:49:17.782Z,1015.43
2016-11-03T03:49:58.318Z,1015.43
2016-11-03T03:50:38.851Z,1015.44
2016-11-03T03:51:19.379Z,1015.47
2016-11-03T03:51:59.885Z,1015.45
2016-11-03T03:52:40.418Z,1015.45
2016-11-03T03:53:20.942Z,1015.44
2016-11-03T03:54:01.457Z,1015.4
2016-11-03T03:54:41.975Z,1015.43
2016-11-03T03:55:22.510Z,1015.49
2016-11-03T03:56:03.040Z,1015.47
2016-11-03T03:56:43.553Z,1015.45
2016-11-03T03:57:24.087Z,1015.47
2016-11-03T03:58:04.618Z,1015.45
2016-11-03T03:58:45.140Z,1015.48
2016-11-03T03:59:25.666Z,1015.51
2016-11-03T04:00:06.182Z,1015.46
2016-11-03T04:00:46.708Z,1015.49
2016-11-03T04:01:27.240Z,1015.5
2016-11-03T04:02:07.768Z,1015.5
2016-11-03T04:02:48.287Z,1015.52
2016-11-03T04:03:28.829Z,1015.46
2016-11-03T04:04:09.347Z,1015.5
2016-11-03T04:04:49.852Z,1015.47
2016-11-03T04:05:30.373Z,1015.48
2016-11-03T04:06:10.897Z,1015.51
2016-11-03T04:06:51.430Z,1015.5
2016-11-03T04:07:31.953Z,1015.48
2016-11-03T04:08:12.488Z,1015.52
2016-11-03T04:08:53.031Z,1015.53
2016-11-03T04:09:33.552Z,1015.5
2016-11-03T04:10:14.075Z,1015.51
2016-11-03T04:10:54.601Z,1015.48
2016-11-03T04:11:35.112Z,1015.5
2016-11-03T04:12:15.635Z,1015.5
2016-11-03T04:12:56.147Z,1015.47
2016-11-03T04:13:36.669Z,1015.49
2016-11-03T04:14:17.194Z,1015.49
2016-11-03T04:14:57.714Z,1015.47
2016-11-03T04:15:38.238Z,1015.47
2016-11-03T04:16:18.770Z,1015.5
2016-11-03T04:16:59.292Z,1015.47
2016-11-03T04:17:39.824Z,1015.49
2016-11-03T04:18:20.329Z,1015.48
2016-11-03T04:19:00.865Z,1015.46
2016-11-03T04:19:41.384Z,1015.47
2016-11-03T04:20:21.891Z,1015.46
2016-11-03T04:21:02.427Z,1015.45
2016-11-03T04:21:42.968Z,1015.46
2016-11-03T04:22:23.493Z,1015.48
2016-11-03T04:23:04.016Z,1015.48
2016-11-03T04:23:44.544Z,1015.48
2016-11-03T04:24:25.070Z,1015.48
2016-11-03T04:25:05.603Z,1015.52
2016-11-03T04:25:46.124Z,1015.49
2016-11-03T04:26:26.647Z,1015.48
2016-11-03T04:27:07.176Z,1015.5
2016-11-03T04:27:47.714Z,1015.47
2016-11-03T04:28:28.216Z,1015.51
2016-11-03T04:29:08.727Z,1015.49
2016-11-03T04:29:49.237Z,1015.47
2016-11-03T04:30:29.774Z,1015.51
2016-11-03T04:31:10.290Z,1015.51
2016-11-03T04:31:50.819Z,1015.52
2016-11-03T04:32:31.332Z,1015.52
2016-11-03T04:33:11.857Z,1015.51
2016-11-03T04:33:52.385Z,1015.52
2016-11-03T04:34:32.923Z,1015.53
2016-11-03T04:35:13.435Z,1015.52
2016-11-03T04:35:53.950Z,1015.53
2016-11-03T04:36:34.490Z,1015.56
2016-11-03T04:37:15.015Z,1015.55
2016-11-03T04:37:55.525Z,1015.53
2016-11-03T04:38:36.064Z,1015.55
2016-11-03T04:39:16.583Z,1015.51
2016-11-03T04:39:57.097Z,1015.53
2016-11-03T04:40:37.622Z,1015.53
2016-11-03T04:41:18.135Z,1015.56
2016-11-03T04:41:58.667Z,1015.57
2016-11-03T04:42:39.179Z,1015.58
2016-11-03T04:43:19.691Z,1015.55
2016-11-03T04:44:00.219Z,1015.57
2016-11-03T04:44:40.734Z,1015.55
2016-11-03T04:45:21.241Z,1015.56
2016-11-03T04:46:01.817Z,1015.56
2016-11-03T04:46:42.332Z,1015.59
2016-11-03T04:47:22.828Z,1015.57
2016-11-03T04:48:03.349Z,1015.54
2016-11-03T04:48:43.883Z,1015.56
2016-11-03T04:49:24.403Z,1015.58
2016-11-03T04:50:04.918Z,1015.52
2016-11-03T04:50:45.445Z,1015.56
2016-11-03T04:51:25.969Z,1015.57
2016-11-03T04:52:06.473Z,1015.55
2016-11-03T04:52:47.001Z,1015.6
2016-11-03T04:53:27.533Z,1015.57
2016-11-03T04:54:08.044Z,1015.56
2016-11-03T04:54:48.564Z,1015.55
2016-11-03T04:55:29.087Z,1015.58
2016-11-03T04:56:09.614Z,1015.56
2016-11-03T04:56:50.127Z,1015.56
2016-11-03T04:57:30.642Z,1015.55
2016-11-03T04:58:11.161Z,1015.54
2016-11-03T04:58:51.670Z,1015.52
2016-11-03T04:59:32.185Z,1015.55
2016-11-03T05:00:12.716Z,1015.56
2016-11-03T05:00:53.230Z,1015.54
2016-11-03T05:01:33.753Z,1015.54
2016-11-03T05:02:14.283Z,1015.58
2016-11-03T05:02:54.816Z,1015.55
2016-11-03T05:03:35.340Z,1015.53
2016-11-03T05:04:15.866Z,1015.54
2016-11-03T05:04:56.385Z,1015.5
2016-11-03T05:05:36.920Z,1015.5
2016-11-03T05:06:17.448Z,1015.51
2016-11-03T05:06:57.954Z,1015.5
2016-11-03T05:07:38.479Z,1015.53
2016-11-03T05:08:18.995Z,1015.55
2016-11-03T05:08:59.519Z,1015.55
2016-11-03T05:09:40.052Z,1015.51
2016-11-03T05:10:20.572Z,1015.51
2016-11-03T05:11:01.080Z,1015.52
2016-11-03T05:11:41.602Z,1015.51
2016-11-03T05:12:22.126Z,1015.54
2016-11-03T05:13:02.635Z,1015.53
2016-11-03T05:13:43.154Z,1015.53
2016-11-03T05:14:23.651Z,1015.51
2016-11-03T05:15:04.181Z,1015.56
2016-11-03T05:15:44.689Z,1015.58
2016-11-03T05:16:25.223Z,1015.58
2016-11-03T05:17:05.766Z,1015.56
2016-11-03T05:17:46.269Z,1015.61
2016-11-03T05:18:26.767Z,1015.57
2016-11-03T05:19:07.271Z,1015.63
2016-11-03T05:19:47.799Z,1015.6
2016-11-03T05:20:28.324Z,1015.63
2016-11-03T05:21:08.839Z,1015.6
2016-11-03T05:21:49.363Z,1015.6
2016-11-03T05:22:29.890Z,1015.6
2016-11-03T05:23:10.415Z,1015.57
2016-11-03T05:23:50.940Z,1015.55
2016-11-03T05:24:31.485Z,1015.59
2016-11-03T05:25:11.999Z,1015.56
2016-11-03T05:25:52.530Z,1015.53
2016-11-03T05:26:33.046Z,1015.54
2016-11-03T05:27:13.561Z,1015.58
2016-11-03T05:27:54.079Z,1015.57
2016-11-03T05:28:34.594Z,1015.55
2016-11-03T05:29:15.097Z,1015.54
2016-11-03T05:29:55.627Z,1015.57
2016-11-03T05:30:36.148Z,1015.59
2016-11-03T05:31:16.654Z,1015.59
2016-11-03T05:31:57.158Z,1015.58
2016-11-03T05:32:37.673Z,1015.64
2016-11-03T05:33:18.211Z,1015.6
2016-11-03T05:33:58.692Z,1015.63
2016-11-03T05:34:39.210Z,1015.68
2016-11-03T05:35:19.743Z,1015.64
2016-11-03T05:36:00.255Z,1015.63
2016-11-03T05:36:40.772Z,1015.65
2016-11-03T05:37:21.301Z,1015.61
2016-11-03T05:38:01.826Z,1015.64
2016-11-03T05:38:42.335Z,1015.64
2016-11-03T05:39:22.851Z,1015.66
2016-11-03T05:40:03.389Z,1015.63
2016-11-03T05:40:43.908Z,1015.63
2016-11-03T05:41:24.408Z,1015.62
2016-11-03T05:42:04.932Z,1015.62
2016-11-03T05:42:45.469Z,1015.61
2016-11-03T05:43:25.988Z,1015.62
2016-11-03T05:44:06.512Z,1015.64
2016-11-03T05:44:47.043Z,1015.61
2016-11-03T05:45:27.579Z,1015.61
2016-11-03T05:46:08.095Z,1015.6
2016-11-03T05:46:48.626Z,1015.68
2016-11-03T05:47:29.122Z,1015.64
2016-11-03T05:48:09.632Z,1015.65
2016-11-03T05:48:50.172Z,1015.6
2016-11-03T05:49:30.695Z,1015.6
2016-11-03T05:50:11.224Z,1015.61
2016-11-03T05:50:51.753Z,1015.65
2016-11-03T05:51:32.275Z,1015.63
2016-11-03T05:52:12.794Z,1015.66
2016-11-03T05:52:53.349Z,1015.66
2016-11-03T05:53:33.881Z,1015.67
2016-11-03T05:54:14.393Z,1015.63
2016-11-03T05:54:54.908Z,1015.61
2016-11-03T05:55:35.427Z,1015.61
2016-11-03T05:56:15.965Z,1015.64
2016-11-03T05:56:56.482Z,1015.63
2016-11-03T05:57:37.054Z,1015.6
2016-11-03T05:58:17.570Z,1015.61
2016-11-03T05:58:58.108Z,1015.6
2016-11-03T05:59:38.625Z,1015.61
2016-11-03T06:00:19.149Z,1015.59
2016-11-03T06:00:59.682Z,1015.61
2016-11-03T06:01:40.193Z,1015.6
2016-11-03T06:02:20.705Z,1015.62
2016-11-03T06:03:01.228Z,1015.62
2016-11-03T06:03:41.754Z,1015.63
2016-11-03T06:04:22.283Z,1015.63
2016-11-03T06:05:02.808Z,1015.63
2016-11-03T06:05:43.329Z,1015.64
2016-11-03T06:06:23.863Z,1015.64
2016-11-03T06:07:04.423Z,1015.69
2016-11-03T06:07:44.999Z,1015.68
2016-11-03T06:08:25.526Z,1015.69
2016-11-03T06:09:06.055Z,1015.72
2016-11-03T06:09:46.594Z,1015.73
2016-11-03T06:10:27.101Z,1015.79
2016-11-03T06:11:07.640Z,1015.76
2016-11-03T06:11:48.153Z,1015.77
2016-11-03T06:12:28.696Z,1015.79
2016-11-03T06:13:09.223Z,1015.78
2016-11-03T06:13:49.740Z,1015.75
2016-11-03T06:14:30.294Z,1015.78
2016-11-03T06:15:10.822Z,1015.82
2016-11-03T06:15:51.361Z,1015.81
2016-11-03T06:16:31.888Z,1015.85
2016-11-03T06:17:12.434Z,1015.85
2016-11-03T06:17:52.963Z,1015.83
2016-11-03T06:18:33.479Z,1015.84
2016-11-03T06:19:14.011Z,1015.8
2016-11-03T06:19:54.549Z,1015.8
2016-11-03T06:20:35.052Z,1015.82
2016-11-03T06:21:15.568Z,1015.81
2016-11-03T06:21:56.123Z,1015.86
2016-11-03T06:22:36.622Z,1015.87
2016-11-03T06:23:17.143Z,1015.88
2016-11-03T06:23:57.653Z,1015.91
2016-11-03T06:24:38.196Z,1015.92
2016-11-03T06:25:18.734Z,1015.9
2016-11-03T06:25:59.224Z,1015.95
2016-11-03T06:26:39.773Z,1015.93
2016-11-03T06:27:20.313Z,1015.93
2016-11-03T06:28:00.844Z,1015.92
2016-11-03T06:28:41.364Z,1015.93
2016-11-03T06:29:21.870Z,1015.97
2016-11-03T06:30:02.401Z,1015.95
2016-11-03T06:30:42.934Z,1015.98
2016-11-03T06:31:23.447Z,1016
2016-11-03T06:32:03.968Z,1016
2016-11-03T06:32:44.508Z,1016.05
2016-11-03T06:33:25.042Z,1016.01
2016-11-03T06:34:05.568Z,1016.06
2016-11-03T06:34:46.109Z,1016.06
2016-11-03T06:35:26.635Z,1016.05
2016-11-03T06:36:07.176Z,1016.04
2016-11-03T06:36:47.716Z,1016.08
2016-11-03T06:37:28.232Z,1016.1
2016-11-03T06:38:08.753Z,1016.06
2016-11-03T06:38:49.277Z,1016.08
2016-11-03T06:39:29.835Z,1016.09
2016-11-03T06:40:10.335Z,1016.14
2016-11-03T06:40:50.871Z,1016.11
2016-11-03T06:41:31.406Z,1016.1
2016-11-03T06:42:11.951Z,1016.14
2016-11-03T06:42:52.483Z,1016.13
2016-11-03T06:43:33.009Z,1016.16
2016-11-03T06:44:13.523Z,1016.13
2016-11-03T06:44:54.055Z,1016.12
2016-11-03T06:45:34.577Z,1016.18
2016-11-03T06:46:15.099Z,1016.16
2016-11-03T06:46:55.624Z,1016.22
2016-11-03T06:47:36.138Z,1016.18
2016-11-03T06:48:16.681Z,1016.19
2016-11-03T06:48:57.276Z,1016.22
2016-11-03T06:49:37.815Z,1016.18
2016-11-03T06:50:18.323Z,1016.2
2016-11-03T06:50:58.861Z,1016.19
2016-11-03T06:51:39.386Z,1016.19
2016-11-03T06:52:19.933Z,1016.18
2016-11-03T06:53:00.460Z,1016.18
2016-11-03T06:53:40.980Z,1016.19
2016-11-03T06:54:21.504Z,1016.25
2016-11-03T06:55:02.022Z,1016.22
2016-11-03T06:55:42.539Z,1016.24
2016-11-03T06:56:23.072Z,1016.23
2016-11-03T06:57:03.592Z,1016.26
2016-11-03T06:57:44.119Z,1016.3
2016-11-03T06:58:24.658Z,1016.29
2016-11-03T06:59:05.172Z,1016.29
2016-11-03T06:59:45.719Z,1016.28
2016-11-03T07:00:26.253Z,1016.32
2016-11-03T07:01:06.780Z,1016.31
2016-11-03T07:01:47.300Z,1016.29
2016-11-03T07:02:27.830Z,1016.29
2016-11-03T07:03:08.359Z,1016.3
2016-11-03T07:03:48.870Z,1016.33
2016-11-03T07:04:29.410Z,1016.33
2016-11-03T07:05:09.946Z,1016.34
2016-11-03T07:05:50.483Z,1016.35
2016-11-03T07:06:31.009Z,1016.34
2016-11-03T07:07:11.539Z,1016.36
2016-11-03T07:07:52.052Z,1016.34
2016-11-03T07:08:32.591Z,1016.35
2016-11-03T07:09:13.131Z,1016.33
2016-11-03T07:09:53.668Z,1016.37
2016-11-03T07:10:34.334Z,1016.36
2016-11-03T07:11:14.880Z,1016.36
2016-11-03T07:11:55.383Z,1016.35
2016-11-03T07:12:35.910Z,1016.32
2016-11-03T07:13:16.448Z,1016.35
2016-11-03T07:13:57.001Z,1016.36
2016-11-03T07:14:37.523Z,1016.38
2016-11-03T07:15:18.030Z,1016.38
2016-11-03T07:15:58.560Z,1016.34
2016-11-03T07:16:39.103Z,1016.37
2016-11-03T07:17:19.635Z,1016.38
2016-11-03T07:18:00.136Z,1016.37
2016-11-03T07:18:40.664Z,1016.37
2016-11-03T07:19:21.188Z,1016.34
2016-11-03T07:20:01.727Z,1016.36
2016-11-03T07:20:42.268Z,1016.35
2016-11-03T07:21:22.786Z,1016.35
2016-11-03T07:22:03.340Z,1016.38
2016-11-03T07:22:43.878Z,1016.36
2016-11-03T07:23:24.415Z,1016.4
2016-11-03T07:24:04.968Z,1016.38
2016-11-03T07:24:45.512Z,1016.37
2016-11-03T07:25:26.067Z,1016.35
2016-11-03T07:26:06.628Z,1016.4
2016-11-03T07:26:47.169Z,1016.39
2016-11-03T07:27:27.712Z,1016.39
2016-11-03T07:29:41.984Z,1016.38
2016-11-03T07:30:22.520Z,1016.39
2016-11-03T07:31:03.062Z,1016.39
2016-11-03T07:31:43.594Z,1016.42
2016-11-03T07:32:24.141Z,1016.41
2016-11-03T07:33:04.654Z,1016.42
2016-11-03T07:33:45.186Z,1016.41
2016-11-03T07:34:25.689Z,1016.44
2016-11-03T07:35:06.201Z,1016.45
2016-11-03T07:35:46.729Z,1016.44
2016-11-03T07:36:27.253Z,1016.44
2016-11-03T07:37:07.764Z,1016.45
2016-11-03T07:37:48.290Z,1016.45
2016-11-03T07:38:28.813Z,1016.43
2016-11-03T07:39:09.345Z,1016.4
2016-11-03T07:39:49.892Z,1016.44
2016-11-03T07:40:30.584Z,1016.45
2016-11-03T07:41:11.117Z,1016.46
2016-11-03T07:41:51.657Z,1016.46
2016-11-03T07:42:32.194Z,1016.47
2016-11-03T07:43:12.714Z,1016.46
2016-11-03T07:43:53.240Z,1016.48
2016-11-03T07:44:33.770Z,1016.51
2016-11-03T07:45:14.301Z,1016.51
2016-11-03T07:45:54.833Z,1016.49
2016-11-03T07:46:35.350Z,1016.54
2016-11-03T07:47:15.874Z,1016.54
2016-11-03T07:47:56.392Z,1016.56
2016-11-03T07:48:36.905Z,1016.51
2016-11-03T07:49:17.451Z,1016.6
2016-11-03T07:49:57.966Z,1016.6
2016-11-03T07:50:38.513Z,1016.6
2016-11-03T07:51:19.060Z,1016.61
2016-11-03T07:51:59.596Z,1016.61
2016-11-03T07:52:40.129Z,1016.61
2016-11-03T07:53:20.643Z,1016.62
2016-11-03T07:54:01.167Z,1016.65
2016-11-03T07:54:41.694Z,1016.61
2016-11-03T07:55:22.211Z,1016.66
2016-11-03T07:56:02.737Z,1016.63
2016-11-03T07:56:43.269Z,1016.64
2016-11-03T07:57:23.799Z,1016.64
2016-11-03T07:58:04.342Z,1016.64
2016-11-03T07:58:44.865Z,1016.64
2016-11-03T07:59:25.387Z,1016.66
2016-11-03T08:00:05.903Z,1016.7
2016-11-03T08:00:46.442Z,1016.64
2016-11-03T08:01:26.957Z,1016.66
2016-11-03T08:02:07.485Z,1016.7
2016-11-03T08:02:48.009Z,1016.73
2016-11-03T08:03:28.545Z,1016.71
2016-11-03T08:04:09.047Z,1016.71
2016-11-03T08:04:49.588Z,1016.7
2016-11-03T08:05:30.121Z,1016.72
2016-11-03T08:06:10.659Z,1016.69
2016-11-03T08:06:51.196Z,1016.68
2016-11-03T08:07:31.714Z,1016.63
2016-11-03T08:08:12.240Z,1016.67
2016-11-03T08:08:52.774Z,1016.64
2016-11-03T08:09:33.316Z,1016.66
2016-11-03T08:10:13.847Z,1016.62
2016-11-03T08:10:54.381Z,1016.61
2016-11-03T08:11:34.908Z,1016.63
2016-11-03T08:12:15.429Z,1016.65
2016-11-03T08:12:55.972Z,1016.63
2016-11-03T08:13:36.494Z,1016.67
2016-11-03T08:14:17.013Z,1016.67
2016-11-03T08:14:57.550Z,1016.64
2016-11-03T08:15:38.072Z,1016.67
2016-11-03T08:16:18.611Z,1016.66
2016-11-03T08:16:59.117Z,1016.65
2016-11-03T08:17:39.641Z,1016.66
2016-11-03T08:18:20.177Z,1016.67
2016-11-03T08:19:00.727Z,1016.63
2016-11-03T08:19:41.260Z,1016.65
2016-11-03T08:20:21.784Z,1016.64
2016-11-03T08:21:02.323Z,1016.63
2016-11-03T08:21:42.845Z,1016.72
2016-11-03T08:22:23.382Z,1016.73
2016-11-03T08:23:03.918Z,1016.77
2016-11-03T08:23:44.454Z,1016.7
2016-11-03T08:24:24.976Z,1016.75
2016-11-03T08:25:05.487Z,1016.74
2016-11-03T08:25:46.017Z,1016.68
2016-11-03T08:26:26.550Z,1016.72
2016-11-03T08:27:07.077Z,1016.72
2016-11-03T08:27:47.623Z,1016.74
2016-11-03T08:28:28.154Z,1016.73
2016-11-03T08:29:08.683Z,1016.72
2016-11-03T08:29:49.228Z,1016.73
2016-11-03T08:30:29.770Z,1016.67
2016-11-03T08:31:10.311Z,1016.74
2016-11-03T08:31:50.837Z,1016.69
2016-11-03T08:32:31.357Z,1016.71
2016-11-03T08:33:11.892Z,1016.71
2016-11-03T08:33:52.433Z,1016.74
2016-11-03T08:34:32.972Z,1016.75
2016-11-03T08:35:13.513Z,1016.76
2016-11-03T08:35:54.044Z,1016.74
2016-11-03T08:36:34.569Z,1016.73
2016-11-03T08:37:15.111Z,1016.75
2016-11-03T08:37:55.635Z,1016.74
2016-11-03T08:38:36.181Z,1016.77